createdAt,value
2022-08-08T00:00:53.802Z,12.05
2022-08-08T00:00:54.152Z,11.93
2022-08-08T00:02:03.158Z,11.87
2022-08-08T00:02:46.483Z,11.89
2022-08-08T00:03:45.271Z,11.78
2022-08-08T00:04:49.458Z,11.82
2022-08-08T00:06:02.746Z,11.85
2022-08-08T00:06:46.272Z,11.74
2022-08-08T00:07:45.179Z,11.64
2022-08-08T00:08:49.140Z,11.54
2022-08-08T00:09:45.150Z,11.44
2022-08-08T00:10:46.181Z,11.53
2022-08-08T00:11:46.601Z,11.44
2022-08-08T00:12:48.511Z,11.39
2022-08-08T00:14:15.333Z,11.34
2022-08-08T00:14:48.467Z,11.28
2022-08-08T00:15:56.511Z,11.31
2022-08-08T00:16:46.183Z,11.43
2022-08-08T00:18:02.408Z,11.53
2022-08-08T00:18:46.080Z,11.50
2022-08-08T00:19:51.236Z,11.53
2022-08-08T00:20:46.098Z,11.62
2022-08-08T00:21:45.105Z,11.57
2022-08-08T00:22:45.078Z,11.64
2022-08-08T00:23:51.067Z,11.56
2022-08-08T00:24:46.061Z,11.47
2022-08-08T00:25:50.625Z,11.68
2022-08-08T00:26:46.089Z,11.64
2022-08-08T00:27:45.038Z,11.67
2022-08-08T00:28:44.991Z,11.56
2022-08-08T00:29:46.968Z,11.62
2022-08-08T00:31:00.219Z,11.65
2022-08-08T00:32:28.742Z,11.57
2022-08-08T00:32:46.199Z,11.57
2022-08-08T00:34:17.319Z,11.52
2022-08-08T00:34:46.002Z,11.44
2022-08-08T00:35:48.185Z,11.44
2022-08-08T00:36:44.988Z,11.52
2022-08-08T00:37:57.025Z,11.47
2022-08-08T00:38:51.758Z,11.57
2022-08-08T00:41:10.273Z,11.56
2022-08-08T00:41:10.463Z,11.47
2022-08-08T00:42:08.073Z,11.36
2022-08-08T00:42:46.051Z,11.25
2022-08-08T00:43:46.007Z,11.14
2022-08-08T00:44:45.877Z,11.17
2022-08-08T00:45:44.880Z,11.11
2022-08-08T00:46:56.933Z,11.06
2022-08-08T00:48:02.070Z,11.14
2022-08-08T00:49:00.886Z,11.21
2022-08-08T00:49:57.728Z,11.24
2022-08-08T00:50:48.186Z,11.24
2022-08-08T00:51:45.861Z,11.25
2022-08-08T00:52:48.398Z,11.29
2022-08-08T00:54:04.132Z,11.20
2022-08-08T00:54:45.981Z,11.19
2022-08-08T00:55:53.755Z,11.16
2022-08-08T00:56:45.745Z,11.11
2022-08-08T00:57:44.767Z,11.16
2022-08-08T00:58:54.737Z,11.21
2022-08-08T00:59:46.419Z,11.01
2022-08-08T01:00:44.752Z,10.99
2022-08-08T01:01:45.779Z,10.88
2022-08-08T01:03:59.516Z,10.77
2022-08-08T01:04:01.688Z,10.84
2022-08-08T01:04:47.375Z,10.74
2022-08-08T01:05:59.339Z,10.59
2022-08-08T01:06:47.512Z,10.66
2022-08-08T01:07:55.403Z,10.63
2022-08-08T01:08:50.145Z,10.62
2022-08-08T01:09:48.732Z,10.59
2022-08-08T01:10:44.570Z,10.51
2022-08-08T01:11:51.821Z,10.56
2022-08-08T01:12:45.598Z,10.65
2022-08-08T01:13:45.959Z,10.74
2022-08-08T01:14:53.379Z,10.71
2022-08-08T01:15:53.261Z,10.62
2022-08-08T01:16:46.702Z,10.74
2022-08-08T01:17:55.566Z,10.70
2022-08-08T01:18:53.259Z,10.71
2022-08-08T01:20:02.670Z,10.83
2022-08-08T01:20:45.486Z,10.83
2022-08-08T01:22:10.308Z,10.78
2022-08-08T01:22:45.524Z,10.84
2022-08-08T01:24:02.697Z,10.80
2022-08-08T01:24:50.641Z,10.81
2022-08-08T01:25:45.469Z,10.65
2022-08-08T01:26:49.376Z,10.47
2022-08-08T01:27:46.326Z,10.46
2022-08-08T01:28:44.406Z,10.43
2022-08-08T01:29:59.709Z,10.43
2022-08-08T01:30:45.752Z,10.51
2022-08-08T01:32:13.641Z,10.58
2022-08-08T01:32:45.344Z,10.60
2022-08-08T01:34:00.210Z,10.59
2022-08-08T01:34:45.360Z,10.53
2022-08-08T01:35:44.331Z,10.58
2022-08-08T01:36:48.657Z,10.52
2022-08-08T01:37:57.398Z,10.60
2022-08-08T01:38:45.301Z,10.65
2022-08-08T01:39:44.338Z,10.59
2022-08-08T01:40:44.288Z,10.56
2022-08-08T01:41:44.328Z,10.59
2022-08-08T01:42:44.262Z,10.60
2022-08-08T01:43:44.310Z,10.66
2022-08-08T01:44:44.291Z,10.68
2022-08-08T01:45:45.281Z,10.76
2022-08-08T01:46:47.515Z,10.63
2022-08-08T01:48:13.847Z,10.74
2022-08-08T01:48:46.448Z,10.73
2022-08-08T01:49:44.203Z,10.84
2022-08-08T01:50:44.313Z,10.84
2022-08-08T01:52:29.367Z,10.74
2022-08-08T01:54:01.030Z,10.76
2022-08-08T01:55:17.772Z,10.74
2022-08-08T01:55:18.788Z,10.78
2022-08-08T01:56:28.325Z,10.68
2022-08-08T01:56:46.930Z,10.60
2022-08-08T01:58:11.929Z,10.55
2022-08-08T01:58:46.436Z,10.36
2022-08-08T02:00:02.361Z,10.32
2022-08-08T02:00:48.539Z,10.34
2022-08-08T02:02:00.207Z,10.32
2022-08-08T02:02:45.378Z,10.32
2022-08-08T02:03:56.827Z,10.26
2022-08-08T02:04:45.054Z,10.24
2022-08-08T02:05:56.910Z,10.34
2022-08-08T02:06:45.070Z,10.40
2022-08-08T02:07:48.786Z,10.39
2022-08-08T02:08:45.686Z,10.30
2022-08-08T02:10:02.720Z,10.37
2022-08-08T02:10:45.914Z,10.37
2022-08-08T02:11:59.523Z,10.40
2022-08-08T02:12:45.046Z,10.39
2022-08-08T02:13:53.708Z,10.46
2022-08-08T02:14:55.892Z,10.26
2022-08-08T02:15:44.978Z,10.33
2022-08-08T02:16:43.941Z,10.15
2022-08-08T02:17:43.949Z,10.14
2022-08-08T02:18:43.937Z,10.10
2022-08-08T02:20:07.801Z,10.09
2022-08-08T02:21:01.822Z,10.00
2022-08-08T02:21:44.864Z,10.03
2022-08-08T02:22:52.318Z,9.86
2022-08-08T02:23:44.870Z,9.89
2022-08-08T02:24:44.224Z,9.93
2022-08-08T02:25:48.479Z,9.88
2022-08-08T02:26:44.807Z,9.96
2022-08-08T02:27:43.989Z,10.00
2022-08-08T02:28:48.614Z,10.04
2022-08-08T02:29:51.594Z,10.06
2022-08-08T02:30:49.744Z,10.09
2022-08-08T02:31:59.588Z,10.18
2022-08-08T02:32:44.790Z,10.22
2022-08-08T02:34:00.585Z,10.09
2022-08-08T02:35:08.596Z,9.96
2022-08-08T02:36:04.280Z,10.03
2022-08-08T02:36:44.753Z,9.94
2022-08-08T02:37:51.966Z,10.07
2022-08-08T02:38:48.957Z,9.91
2022-08-08T02:40:00.289Z,9.79
2022-08-08T02:40:45.146Z,9.76
2022-08-08T02:41:58.942Z,9.68
2022-08-08T02:42:44.706Z,9.61
2022-08-08T02:44:37.769Z,9.75
2022-08-08T02:44:54.320Z,9.68
2022-08-08T02:45:54.035Z,9.75
2022-08-08T02:46:44.657Z,9.96
2022-08-08T02:47:46.765Z,9.88
2022-08-08T02:48:45.295Z,9.79
2022-08-08T02:49:47.828Z,9.86
2022-08-08T02:50:52.878Z,9.89
2022-08-08T02:51:55.202Z,9.99
2022-08-08T02:52:50.306Z,9.93
2022-08-08T02:53:44.568Z,9.85
2022-08-08T02:54:43.575Z,9.91
2022-08-08T02:55:43.564Z,9.91
2022-08-08T02:56:43.536Z,9.89
2022-08-08T02:57:44.440Z,9.89
2022-08-08T02:58:43.533Z,9.88
2022-08-08T02:59:57.660Z,10.04
2022-08-08T03:00:50.779Z,9.86
2022-08-08T03:01:50.109Z,9.86
2022-08-08T03:02:50.390Z,9.81
2022-08-08T03:05:00.988Z,9.91
2022-08-08T03:05:03.185Z,9.93
2022-08-08T03:05:45.449Z,9.91
2022-08-08T03:06:43.487Z,9.88
2022-08-08T03:07:57.967Z,9.91
2022-08-08T03:08:44.460Z,9.83
2022-08-08T03:09:44.433Z,9.76
2022-08-08T03:10:44.645Z,9.78
2022-08-08T03:12:01.005Z,9.50
2022-08-08T03:13:02.591Z,9.56
2022-08-08T03:15:58.630Z,9.53
2022-08-08T03:16:03.865Z,9.48
2022-08-08T03:16:04.029Z,9.46
2022-08-08T03:16:44.371Z,9.53
2022-08-08T03:17:43.406Z,9.46
2022-08-08T03:18:44.359Z,9.45
2022-08-08T03:19:50.669Z,9.53
2022-08-08T03:20:46.808Z,9.57
2022-08-08T03:21:58.199Z,9.58
2022-08-08T03:22:44.320Z,9.64
2022-08-08T03:23:59.508Z,9.63
2022-08-08T03:24:44.295Z,9.60
2022-08-08T03:25:43.257Z,9.57
2022-08-08T03:26:43.283Z,9.52
2022-08-08T03:27:43.323Z,9.56
2022-08-08T03:28:43.236Z,9.46
2022-08-08T03:29:56.166Z,9.57
2022-08-08T03:30:44.224Z,9.40
2022-08-08T03:32:05.287Z,9.40
2022-08-08T03:32:47.276Z,9.31
2022-08-08T03:33:55.739Z,9.38
2022-08-08T03:34:44.194Z,9.23
2022-08-08T03:35:43.159Z,9.23
2022-08-08T03:36:44.172Z,9.23
2022-08-08T03:38:53.207Z,9.20
2022-08-08T03:38:54.776Z,9.23
2022-08-08T03:39:51.994Z,9.34
2022-08-08T03:40:46.722Z,9.23
2022-08-08T03:42:27.229Z,9.27
2022-08-08T03:42:45.648Z,9.23
2022-08-08T03:43:43.119Z,9.24
2022-08-08T03:44:47.815Z,9.35
2022-08-08T03:46:04.964Z,9.28
2022-08-08T03:46:44.064Z,9.31
2022-08-08T03:47:45.971Z,9.23
2022-08-08T03:49:56.375Z,9.27
2022-08-08T03:49:59.776Z,9.18
2022-08-08T03:50:44.024Z,9.10
2022-08-08T03:51:51.446Z,9.05
2022-08-08T03:52:45.155Z,9.02
2022-08-08T03:53:47.588Z,8.86
2022-08-08T03:55:01.701Z,8.81
2022-08-08T03:55:56.629Z,8.86
2022-08-08T03:56:46.571Z,8.76
2022-08-08T03:58:31.630Z,8.87
2022-08-08T03:58:47.872Z,8.84
2022-08-08T04:00:02.533Z,8.87
2022-08-08T04:01:02.872Z,8.94
2022-08-08T04:02:12.631Z,8.99
2022-08-08T04:02:51.851Z,9.01
2022-08-08T04:03:58.018Z,9.09
2022-08-08T04:04:43.993Z,9.06
2022-08-08T04:05:48.120Z,8.97
2022-08-08T04:06:43.851Z,9.06
2022-08-08T04:07:42.865Z,9.04
2022-08-08T04:08:46.042Z,9.10
2022-08-08T04:10:02.991Z,9.09
2022-08-08T04:10:43.824Z,9.12
2022-08-08T04:11:57.972Z,9.23
2022-08-08T04:12:43.847Z,9.27
2022-08-08T04:14:03.631Z,9.21
2022-08-08T04:14:44.947Z,9.31
2022-08-08T04:15:55.210Z,9.28
2022-08-08T04:16:43.813Z,9.34
2022-08-08T04:17:58.013Z,9.40
2022-08-08T04:18:48.635Z,9.46
2022-08-08T04:19:43.730Z,9.52
2022-08-08T04:20:42.743Z,9.45
2022-08-08T04:21:45.714Z,9.40
2022-08-08T04:22:42.745Z,9.45
2022-08-08T04:24:19.322Z,9.45
2022-08-08T04:24:43.686Z,9.53
2022-08-08T04:25:43.665Z,9.50
2022-08-08T04:26:57.338Z,9.49
2022-08-08T04:28:03.008Z,9.61
2022-08-08T04:28:43.669Z,9.48
2022-08-08T04:29:55.051Z,9.49
2022-08-08T04:30:44.605Z,9.43
2022-08-08T04:31:59.658Z,9.45
2022-08-08T04:32:47.820Z,9.24
2022-08-08T04:33:43.613Z,9.23
2022-08-08T04:34:49.308Z,9.24
2022-08-08T04:35:50.869Z,9.09
2022-08-08T04:36:43.621Z,9.02
2022-08-08T04:37:43.555Z,9.01
2022-08-08T04:38:43.823Z,9.02
2022-08-08T04:40:05.763Z,9.09
2022-08-08T04:40:54.312Z,9.10
2022-08-08T04:41:43.555Z,9.10
2022-08-08T04:42:46.609Z,9.15
2022-08-08T04:43:46.903Z,9.16
2022-08-08T04:44:43.500Z,9.28
2022-08-08T04:45:42.495Z,9.32
2022-08-08T04:46:42.455Z,9.34
2022-08-08T04:47:46.448Z,9.39
2022-08-08T04:48:42.594Z,9.58
2022-08-08T04:50:01.621Z,9.56
2022-08-08T04:50:45.889Z,9.75
2022-08-08T04:51:55.031Z,9.81
2022-08-08T04:52:43.408Z,9.99
2022-08-08T04:54:36.130Z,9.88
2022-08-08T04:54:43.434Z,9.97
2022-08-08T04:55:55.604Z,9.97
2022-08-08T04:56:43.369Z,10.06
2022-08-08T04:57:42.365Z,10.18
2022-08-08T04:58:42.429Z,10.07
2022-08-08T04:59:42.739Z,10.09
2022-08-08T05:00:42.372Z,10.22
2022-08-08T05:01:48.392Z,10.18
2022-08-08T05:02:43.377Z,10.26
2022-08-08T05:04:08.363Z,10.30
2022-08-08T05:04:44.619Z,10.44
2022-08-08T05:05:45.411Z,10.58
2022-08-08T05:06:42.362Z,10.52
2022-08-08T05:07:42.791Z,10.60
2022-08-08T05:08:42.258Z,10.65
2022-08-08T05:09:42.254Z,10.81
2022-08-08T05:10:42.241Z,10.78
2022-08-08T05:11:42.253Z,10.80
2022-08-08T05:12:59.987Z,10.88
2022-08-08T05:13:58.191Z,10.86
2022-08-08T05:14:43.211Z,10.92
2022-08-08T05:16:52.129Z,10.98
2022-08-08T05:16:54.787Z,10.84
2022-08-08T05:17:54.138Z,10.98
2022-08-08T05:18:43.206Z,11.02
2022-08-08T05:20:11.421Z,11.01
2022-08-08T05:20:50.337Z,11.06
2022-08-08T05:21:43.705Z,11.09
2022-08-08T05:22:43.142Z,11.24
2022-08-08T05:23:46.083Z,11.21
2022-08-08T05:24:42.135Z,11.32
2022-08-08T05:25:43.238Z,11.36
2022-08-08T05:26:42.075Z,11.32
2022-08-08T05:27:44.426Z,11.43
2022-08-08T05:28:56.409Z,11.53
2022-08-08T05:29:43.090Z,11.68
2022-08-08T05:30:47.405Z,11.77
2022-08-08T05:32:03.577Z,11.77
2022-08-08T05:32:43.560Z,11.80
2022-08-08T05:33:44.242Z,11.89
2022-08-08T05:34:43.491Z,12.11
2022-08-08T05:35:42.016Z,12.20
2022-08-08T05:36:42.130Z,12.27
2022-08-08T05:37:52.929Z,12.37
2022-08-08T05:38:43.023Z,12.54
2022-08-08T05:39:42.016Z,12.59
2022-08-08T05:40:41.934Z,12.62
2022-08-08T05:41:46.294Z,12.77
2022-08-08T05:42:42.896Z,12.82
2022-08-08T05:44:03.734Z,12.95
2022-08-08T05:44:42.900Z,13.00
2022-08-08T05:45:53.063Z,13.11
2022-08-08T05:46:42.886Z,13.15
2022-08-08T05:47:59.804Z,13.20
2022-08-08T05:48:42.856Z,13.25
2022-08-08T05:49:41.894Z,13.33
2022-08-08T05:50:42.854Z,13.38
2022-08-08T05:51:48.472Z,13.47
2022-08-08T05:52:42.809Z,13.55
2022-08-08T05:54:24.886Z,13.65
2022-08-08T05:54:50.229Z,13.87
2022-08-08T05:56:07.875Z,13.83
2022-08-08T05:56:47.448Z,13.94
2022-08-08T05:58:04.538Z,14.01
2022-08-08T05:58:53.532Z,14.12
2022-08-08T05:59:53.674Z,14.17
2022-08-08T06:00:44.449Z,14.34
2022-08-08T06:01:55.565Z,14.35
2022-08-08T06:02:43.508Z,14.57
2022-08-08T06:03:42.102Z,14.68
2022-08-08T06:04:41.725Z,14.69
2022-08-08T06:05:42.688Z,14.84
2022-08-08T06:06:41.675Z,14.93
2022-08-08T06:07:43.790Z,14.98
2022-08-08T06:08:53.378Z,15.15
2022-08-08T06:10:00.360Z,15.21
2022-08-08T06:10:42.713Z,15.35
2022-08-08T06:11:46.006Z,15.30
2022-08-08T06:12:43.453Z,15.33
2022-08-08T06:13:47.256Z,15.48
2022-08-08T06:14:47.890Z,15.43
2022-08-08T06:15:53.329Z,15.54
2022-08-08T06:16:42.653Z,15.75
2022-08-08T06:17:50.866Z,15.75
2022-08-08T06:18:42.958Z,15.75
2022-08-08T06:19:41.646Z,15.78
2022-08-08T06:20:41.610Z,15.88
2022-08-08T06:21:48.821Z,15.89
2022-08-08T06:22:42.579Z,15.89
2022-08-08T06:23:53.126Z,16.09
2022-08-08T06:24:47.091Z,16.18
2022-08-08T06:26:39.010Z,16.31
2022-08-08T06:26:45.287Z,16.35
2022-08-08T06:27:47.582Z,16.44
2022-08-08T06:28:42.468Z,16.45
2022-08-08T06:29:56.830Z,16.56
2022-08-08T06:30:42.472Z,16.59
2022-08-08T06:32:09.103Z,16.59
2022-08-08T06:32:42.414Z,16.74
2022-08-08T06:34:25.505Z,16.85
2022-08-08T06:34:42.432Z,16.89
2022-08-08T06:36:09.241Z,16.96
2022-08-08T06:36:53.621Z,17.08
2022-08-08T06:37:43.669Z,17.32
2022-08-08T06:38:42.786Z,17.36
2022-08-08T06:39:56.111Z,17.38
2022-08-08T06:40:48.829Z,17.57
2022-08-08T06:41:42.328Z,17.55
2022-08-08T06:42:42.343Z,17.51
2022-08-08T06:43:41.315Z,17.62
2022-08-08T06:44:42.686Z,17.62
2022-08-08T06:45:42.293Z,17.67
2022-08-08T06:46:41.291Z,17.85
2022-08-08T06:47:52.705Z,17.85
2022-08-08T06:48:42.431Z,18.09
2022-08-08T06:49:56.858Z,18.03
2022-08-08T06:50:42.304Z,18.12
2022-08-08T06:51:49.055Z,18.15
2022-08-08T06:52:42.953Z,18.22
2022-08-08T06:53:50.835Z,18.34
2022-08-08T06:54:42.195Z,18.42
2022-08-08T06:55:41.684Z,18.42
2022-08-08T06:56:41.184Z,18.61
2022-08-08T06:57:54.801Z,18.67
2022-08-08T06:58:42.213Z,18.83
2022-08-08T07:00:02.548Z,19.06
2022-08-08T07:00:42.133Z,18.79
2022-08-08T07:02:17.232Z,18.64
2022-08-08T07:02:45.376Z,18.61
2022-08-08T07:04:35.034Z,18.62
2022-08-08T07:04:47.907Z,18.70
2022-08-08T07:05:43.113Z,18.62
2022-08-08T07:06:42.114Z,18.64
2022-08-08T07:07:41.136Z,18.77
2022-08-08T07:08:41.154Z,19.10
2022-08-08T07:09:45.312Z,19.39
2022-08-08T07:10:45.972Z,19.51
2022-08-08T07:11:50.623Z,19.86
2022-08-08T07:12:43.003Z,20.10
2022-08-08T07:14:00.563Z,20.50
2022-08-08T07:14:42.029Z,20.93
2022-08-08T07:16:05.599Z,21.09
2022-08-08T07:16:51.169Z,21.42
2022-08-08T07:18:01.451Z,21.91
2022-08-08T07:18:42.068Z,22.27
2022-08-08T07:19:40.968Z,22.39
2022-08-08T07:20:50.459Z,22.54
2022-08-08T07:21:41.950Z,22.84
2022-08-08T07:22:40.951Z,22.96
2022-08-08T07:24:01.818Z,22.80
2022-08-08T07:24:42.022Z,22.75
2022-08-08T07:25:54.087Z,22.78
2022-08-08T07:26:41.950Z,22.86
2022-08-08T07:27:46.974Z,23.01
2022-08-08T07:28:41.963Z,23.01
2022-08-08T07:30:02.533Z,23.05
2022-08-08T07:31:54.433Z,23.05
2022-08-08T07:32:29.903Z,22.71
2022-08-08T08:22:07.776Z,25.52
2022-08-08T08:22:16.028Z,25.72
2022-08-08T08:23:16.044Z,25.89
2022-08-08T08:24:15.539Z,26.02
2022-08-08T08:25:19.182Z,26.06
2022-08-08T08:26:15.058Z,26.01
2022-08-08T08:27:17.707Z,26.06
2022-08-08T08:28:21.167Z,26.06
2022-08-08T10:58:36.830Z,31.12
2022-08-08T10:59:22.246Z,30.83
2022-08-08T11:00:21.272Z,31.15
2022-08-08T11:01:21.762Z,30.96
2022-08-08T11:02:22.336Z,30.57
2022-08-08T11:03:36.340Z,30.83
2022-08-08T11:04:29.531Z,30.64
2022-08-08T11:05:23.073Z,30.02
2022-08-08T11:06:21.147Z,29.82
2022-08-08T11:08:30.188Z,30.03
2022-08-08T11:08:38.865Z,30.09
2022-08-08T11:09:22.959Z,29.96
2022-08-08T11:10:28.797Z,29.97
2022-08-08T11:11:59.759Z,30.03
2022-08-08T11:12:22.114Z,30.00
2022-08-08T11:13:31.737Z,30.29
2022-08-08T11:14:26.256Z,30.69
2022-08-08T11:15:21.083Z,31.33
2022-08-08T11:16:32.153Z,32.05
2022-08-08T11:17:58.621Z,32.40
2022-08-08T11:18:22.043Z,32.59
2022-08-08T11:19:21.071Z,32.98
2022-08-08T11:20:27.711Z,33.49
2022-08-08T11:21:22.005Z,34.02
2022-08-08T11:22:20.991Z,34.44
2022-08-08T11:23:21.998Z,34.70
2022-08-08T11:24:20.970Z,34.76
2022-08-08T11:25:20.992Z,34.80
2022-08-08T11:26:27.904Z,33.95
2022-08-08T11:27:23.466Z,33.64
2022-08-08T11:28:21.947Z,33.45
2022-08-08T11:29:20.972Z,33.36
2022-08-08T11:30:24.955Z,33.82
2022-08-08T11:31:21.903Z,34.05
2022-08-08T11:32:20.895Z,34.16
2022-08-08T11:33:21.908Z,34.29
2022-08-08T11:34:23.551Z,34.31
2022-08-08T11:35:27.314Z,34.08
2022-08-08T11:36:21.855Z,33.41
2022-08-08T11:38:34.677Z,32.89
2022-08-08T11:38:35.184Z,32.81
2022-08-08T11:39:21.850Z,32.76
2022-08-08T11:40:25.768Z,33.04
2022-08-08T11:41:21.803Z,32.93
2022-08-08T11:42:26.695Z,32.85
2022-08-08T11:43:24.509Z,32.84
2022-08-08T11:44:28.783Z,32.85
2022-08-08T11:45:21.770Z,32.57
2022-08-08T11:46:20.762Z,32.36
2022-08-08T11:47:21.029Z,31.91
2022-08-08T11:48:20.995Z,31.58
2022-08-08T11:49:20.729Z,32.30
2022-08-08T11:50:23.481Z,31.64
2022-08-08T11:51:29.888Z,30.67
2022-08-08T11:52:27.402Z,30.09
2022-08-08T11:53:24.356Z,30.52
2022-08-08T11:54:31.203Z,31.33
2022-08-08T11:55:21.674Z,31.93
2022-08-08T11:56:20.660Z,31.93
2022-08-08T11:57:23.859Z,32.47
2022-08-08T11:58:21.784Z,33.22
2022-08-08T11:59:20.647Z,34.05
2022-08-08T12:00:21.618Z,34.58
2022-08-08T12:01:20.619Z,35.01
2022-08-08T12:02:32.631Z,34.72
2022-08-08T12:03:21.658Z,34.69
2022-08-08T12:04:20.608Z,34.41
2022-08-08T12:05:22.765Z,34.53
2022-08-08T12:06:20.566Z,34.05
2022-08-08T12:07:20.554Z,34.17
2022-08-08T12:08:20.556Z,33.97
2022-08-08T12:09:20.536Z,33.94
2022-08-08T12:10:20.533Z,33.94
2022-08-08T12:11:27.075Z,33.98
2022-08-08T12:12:28.552Z,34.05
2022-08-08T12:13:38.319Z,33.98
2022-08-08T12:14:22.682Z,33.97
2022-08-08T12:15:41.766Z,34.32
2022-08-08T12:16:31.712Z,34.50
2022-08-08T12:17:23.355Z,34.41
2022-08-08T12:18:24.295Z,34.54
2022-08-08T12:19:22.118Z,34.35
2022-08-08T12:20:23.276Z,34.44
2022-08-08T12:21:21.763Z,34.53
2022-08-08T12:22:23.310Z,34.36
2022-08-08T12:23:30.502Z,33.67
2022-08-08T12:24:28.033Z,33.48
2022-08-08T12:25:24.714Z,34.19
2022-08-08T12:26:28.567Z,34.64
2022-08-08T12:27:26.485Z,35.03
2022-08-08T12:28:21.915Z,34.72
2022-08-08T12:29:55.530Z,34.77
2022-08-08T12:30:51.059Z,34.80
2022-08-08T12:31:22.572Z,35.18
2022-08-08T12:32:24.891Z,35.63
2022-08-08T12:33:21.512Z,35.47
2022-08-08T12:35:54.458Z,35.11
2022-08-08T12:35:56.048Z,34.56
2022-08-08T12:36:56.910Z,34.32
2022-08-08T12:38:02.187Z,34.09
2022-08-08T12:43:47.794Z,33.52
2022-08-08T12:44:39.642Z,33.89
2022-08-08T12:45:57.829Z,34.29
2022-08-08T12:46:39.643Z,34.20
2022-08-08T12:48:04.389Z,34.20
2022-08-08T12:48:39.697Z,33.97
2022-08-08T12:49:43.066Z,33.43
2022-08-08T12:50:39.588Z,32.73
2022-08-08T12:51:39.839Z,32.36
2022-08-08T12:52:40.444Z,32.43
2022-08-08T12:53:42.403Z,32.96
2022-08-08T12:54:40.867Z,33.30
2022-08-08T12:56:05.924Z,32.89
2022-08-08T12:56:39.571Z,32.30
2022-08-08T12:57:49.899Z,31.98
2022-08-08T12:58:39.599Z,32.05
2022-08-08T12:59:45.130Z,31.68
2022-08-08T13:00:39.552Z,31.57
2022-08-08T13:01:38.563Z,31.67
2022-08-08T13:02:42.201Z,32.17
2022-08-08T13:03:41.956Z,33.23
2022-08-08T13:04:38.465Z,34.26
2022-08-08T13:06:05.634Z,34.63
2022-08-08T13:06:39.438Z,34.66
2022-08-08T13:08:02.857Z,34.61
2022-08-08T13:08:39.441Z,34.22
2022-08-08T13:09:43.353Z,33.27
2022-08-08T13:10:46.130Z,33.34
2022-08-08T13:12:17.973Z,33.78
2022-08-08T13:12:44.461Z,33.90
2022-08-08T13:13:39.391Z,34.05
2022-08-08T13:14:38.366Z,34.13
2022-08-08T13:15:40.535Z,34.17
2022-08-08T13:16:39.541Z,34.19
2022-08-08T13:18:09.181Z,34.31
2022-08-08T13:18:55.754Z,34.26
2022-08-08T13:19:49.634Z,34.38
2022-08-08T13:20:40.541Z,34.34
2022-08-08T13:21:53.711Z,34.22
2022-08-08T13:22:40.565Z,33.95
2022-08-08T13:23:46.558Z,33.74
2022-08-08T13:24:48.102Z,34.23
2022-08-08T13:25:40.457Z,34.34
2022-08-08T13:26:39.413Z,34.64
2022-08-08T13:27:40.418Z,34.83
2022-08-08T13:28:42.098Z,34.89
2022-08-08T13:29:40.942Z,35.26
2022-08-08T13:30:39.381Z,35.62
2022-08-08T13:31:39.386Z,35.97
2022-08-08T13:32:39.704Z,36.41
2022-08-08T13:33:42.689Z,36.56
2022-08-08T13:35:02.147Z,36.38
2022-08-08T13:38:06.331Z,36.35
2022-08-08T13:38:52.885Z,36.30
2022-08-08T13:40:44.581Z,35.89
2022-08-08T13:44:11.020Z,34.14
2022-08-08T13:47:18.266Z,34.02
2022-08-08T13:47:58.199Z,33.98
2022-08-08T13:50:34.830Z,34.44
2022-08-08T13:50:35.329Z,34.64
2022-08-08T13:51:33.414Z,34.61
2022-08-08T13:51:55.805Z,34.54
2022-08-08T13:52:55.570Z,34.35
2022-08-08T13:54:00.007Z,34.16
2022-08-08T13:54:55.748Z,33.98
2022-08-08T13:55:54.792Z,33.67
2022-08-08T13:56:59.928Z,33.29
2022-08-08T13:58:07.812Z,33.11
2022-08-08T13:58:57.387Z,32.98
2022-08-08T13:59:54.726Z,32.98
2022-08-08T14:00:54.803Z,33.17
2022-08-08T14:01:57.187Z,33.51
2022-08-08T14:02:54.960Z,33.79
2022-08-08T14:03:56.043Z,34.07
2022-08-08T14:04:55.672Z,34.22
2022-08-08T14:06:01.147Z,34.44
2022-08-08T14:06:55.693Z,34.14
2022-08-08T14:07:59.534Z,33.92
2022-08-08T14:09:24.443Z,33.94
2022-08-08T14:10:04.343Z,33.83
2022-08-08T14:11:55.883Z,34.32
2022-08-08T14:12:54.595Z,34.76
2022-08-08T14:14:00.416Z,34.95
2022-08-08T14:14:55.607Z,34.70
2022-08-08T14:15:54.615Z,34.16
2022-08-08T14:16:55.460Z,33.73
2022-08-08T14:18:35.789Z,33.08
2022-08-08T16:13:02.254Z,29.79
2022-08-08T16:13:03.640Z,29.86
2022-08-08T16:13:13.851Z,29.87
2022-08-08T16:13:20.476Z,29.71
2022-08-08T16:13:45.799Z,29.81
2022-08-08T16:14:34.773Z,29.94
2022-08-08T16:15:33.773Z,29.68
2022-08-08T16:16:36.386Z,29.79
2022-08-08T16:18:06.443Z,29.68
2022-08-08T16:18:38.806Z,29.55
2022-08-08T16:20:00.148Z,29.57
2022-08-08T16:20:34.723Z,29.59
2022-08-08T16:21:33.708Z,29.59
2022-08-08T16:22:35.415Z,29.53
2022-08-08T16:23:39.943Z,29.47
2022-08-08T16:24:39.061Z,29.52
2022-08-08T16:25:45.905Z,29.60
2022-08-08T16:26:35.795Z,29.63
2022-08-08T16:27:42.489Z,29.82
2022-08-08T16:28:37.342Z,29.79
2022-08-08T16:30:08.754Z,29.86
2022-08-08T16:30:36.652Z,29.79
2022-08-08T16:31:33.608Z,29.74
2022-08-08T16:32:33.797Z,29.63
2022-08-08T16:33:38.081Z,29.63
2022-08-08T16:34:34.608Z,29.62
2022-08-08T16:35:33.592Z,29.52
2022-08-08T16:36:34.376Z,29.40
2022-08-08T16:37:33.551Z,29.37
2022-08-08T16:38:33.552Z,29.44
2022-08-08T16:40:00.506Z,29.38
2022-08-08T16:40:34.612Z,29.38
2022-08-08T16:41:33.559Z,29.31
2022-08-08T16:42:34.913Z,29.20
2022-08-08T16:43:42.039Z,29.20
2022-08-08T16:44:34.698Z,29.25
2022-08-08T16:46:37.653Z,29.23
2022-08-08T16:46:44.863Z,29.26
2022-08-08T16:47:42.144Z,29.31
2022-08-08T16:48:37.026Z,29.33
2022-08-08T16:49:38.537Z,29.28
2022-08-08T16:50:35.352Z,29.20
2022-08-08T16:55:01.614Z,29.20
2022-08-08T16:55:02.064Z,29.20
2022-08-08T16:55:04.079Z,29.19
2022-08-08T16:55:06.025Z,29.04
2022-08-08T16:55:55.652Z,28.95
2022-08-08T16:56:34.376Z,29.07
2022-08-08T16:58:16.619Z,29.01
2022-08-08T16:58:34.881Z,29.07
2022-08-08T16:59:50.796Z,28.97
2022-08-08T17:00:34.405Z,28.90
2022-08-08T17:01:35.623Z,28.69
2022-08-08T17:02:39.742Z,28.70
2022-08-08T17:03:58.973Z,28.63
2022-08-08T17:04:34.291Z,28.75
2022-08-08T17:05:45.092Z,28.75
2022-08-08T17:06:43.385Z,28.66
2022-08-08T17:07:37.549Z,28.59
2022-08-08T17:08:34.421Z,28.65
2022-08-08T17:09:44.885Z,28.58
2022-08-08T17:10:35.394Z,28.54
2022-08-08T17:11:39.294Z,28.51
2022-08-08T17:12:36.687Z,28.46
2022-08-08T17:13:49.822Z,28.46
2022-08-08T17:14:35.353Z,28.41
2022-08-08T17:15:34.594Z,28.41
2022-08-08T17:16:35.342Z,28.32
2022-08-08T17:18:01.279Z,28.25
2022-08-08T17:18:35.340Z,28.25
2022-08-08T17:19:41.052Z,28.29
2022-08-08T17:20:39.494Z,28.25
2022-08-08T17:21:34.326Z,28.23
2022-08-08T17:22:42.159Z,28.35
2022-08-08T17:24:00.375Z,28.36
2022-08-08T17:24:35.294Z,28.43
2022-08-08T17:25:51.973Z,28.40
2022-08-08T17:26:35.296Z,28.19
2022-08-08T17:27:46.285Z,28.19
2022-08-08T17:28:35.723Z,28.09
2022-08-08T17:29:36.498Z,28.14
2022-08-08T17:30:35.205Z,28.19
2022-08-08T17:31:44.373Z,28.10
2022-08-08T17:34:30.261Z,28.14
2022-08-08T17:34:37.434Z,28.13
2022-08-08T17:35:04.213Z,28.19
2022-08-08T17:35:54.418Z,28.28
2022-08-08T17:36:35.164Z,28.23
2022-08-08T17:37:34.183Z,28.33
2022-08-08T17:38:34.140Z,28.28
2022-08-08T17:40:03.211Z,28.33
2022-08-08T17:40:35.164Z,28.23
2022-08-08T17:41:38.889Z,28.14
2022-08-08T17:42:35.102Z,28.10
2022-08-08T17:44:01.189Z,28.06
2022-08-08T17:44:37.451Z,27.98
2022-08-08T17:45:36.509Z,27.89
2022-08-08T17:46:34.070Z,27.76
2022-08-08T17:47:40.141Z,27.58
2022-08-08T17:48:35.034Z,27.50
2022-08-08T17:49:42.715Z,27.48
2022-08-08T17:50:35.016Z,27.47
2022-08-08T17:51:34.054Z,27.42
2022-08-08T17:52:35.403Z,27.36
2022-08-08T17:53:43.122Z,27.35
2022-08-08T17:54:35.329Z,27.24
2022-08-08T17:56:06.677Z,27.39
2022-08-08T17:56:34.989Z,27.28
2022-08-08T17:57:35.438Z,27.24
2022-08-08T17:58:34.047Z,27.16
2022-08-08T17:59:36.406Z,27.14
2022-08-08T18:00:38.999Z,27.06
2022-08-08T18:01:50.971Z,27.02
2022-08-08T18:02:35.997Z,27.04
2022-08-08T18:03:33.976Z,26.92
2022-08-08T18:04:33.884Z,26.76
2022-08-08T18:05:44.154Z,26.72
2022-08-08T18:06:34.895Z,26.69
2022-08-08T18:08:02.187Z,26.76
2022-08-08T18:08:38.187Z,26.67
2022-08-08T18:09:37.980Z,26.68
2022-08-08T18:10:33.829Z,26.61
2022-08-08T18:11:36.579Z,26.54
2022-08-08T18:12:33.848Z,26.62
2022-08-08T18:13:35.040Z,26.58
2022-08-08T18:14:34.806Z,26.50
2022-08-08T18:15:33.794Z,26.47
2022-08-08T18:16:34.818Z,26.44
2022-08-08T18:18:09.382Z,26.36
2022-08-08T18:18:38.704Z,26.28